sensor_id;sensor_type;location;lat;lon;timestamp;pressure;altitude;pressure_sealevel;temperature;humidity
4814;BME280;15375;48.540;9.268;2022-11-15T00:01:40;97138.44;;;6.32;100.00
4814;BME280;15375;48.540;9.268;2022-11-15T00:04:06;97122.66;;;6.17;100.00
4814;BME280;15375;48.540;9.268;2022-11-15T00:06:31;97118.44;;;6.09;100.00
4814;BME280;15375;48.540;9.268;2022-11-15T00:08:58;97096.41;;;6.00;100.00
4814;BME280;15375;48.540;9.268;2022-11-15T00:11:24;97118.41;;;6.16;100.00
4814;BME280;15375;48.540;9.268;2022-11-15T00:13:49;97116.88;;;6.08;100.00
4814;BME280;15375;48.540;9.268;2022-11-15T00:16:15;97141.19;;;6.25;100.00
4814;BME280;15375;48.540;9.268;2022-11-15T00:18:40;97116.09;;;6.11;100.00
4814;BME280;15375;48.540;9.268;2022-11-15T00:21:09;97136.88;;;6.35;100.00
4814;BME280;15375;48.540;9.268;2022-11-15T00:23:35;97141.19;;;6.29;100.00
4814;BME280;15375;48.540;9.268;2022-11-15T00:26:00;97128.44;;;6.26;100.00
4814;BME280;15375;48.540;9.268;2022-11-15T00:28:26;97108.81;;;6.01;100.00
4814;BME280;15375;48.540;9.268;2022-11-15T00:30:52;97126.88;;;6.25;100.00
4814;BME280;15375;48.540;9.268;2022-11-15T00:33:17;97134.59;;;6.30;100.00
4814;BME280;15375;48.540;9.268;2022-11-15T00:35:43;97106.44;;;6.10;100.00
4814;BME280;15375;48.540;9.268;2022-11-15T00:38:08;97081.72;;;5.97;100.00
4814;BME280;15375;48.540;9.268;2022-11-15T00:40:33;97091.78;;;5.97;100.00
4814;BME280;15375;48.540;9.268;2022-11-15T00:42:59;97106.47;;;5.99;100.00
4814;BME280;15375;48.540;9.268;2022-11-15T00:45:24;97097.22;;;5.90;100.00
4814;BME280;15375;48.540;9.268;2022-11-15T00:47:50;97124.66;;;5.99;100.00
4814;BME280;15375;48.540;9.268;2022-11-15T00:50:16;97111.13;;;5.92;100.00
4814;BME280;15375;48.540;9.268;2022-11-15T00:52:42;97115.75;;;6.02;100.00
4814;BME280;15375;48.540;9.268;2022-11-15T00:55:18;97112.69;;;5.96;100.00
4814;BME280;15375;48.540;9.268;2022-11-15T00:57:44;97092.22;;;5.77;100.00
4814;BME280;15375;48.540;9.268;2022-11-15T01:00:09;97108.84;;;5.94;100.00
4814;BME280;15375;48.540;9.268;2022-11-15T01:02:35;97082.19;;;5.67;100.00
4814;BME280;15375;48.540;9.268;2022-11-15T01:05:00;97110.00;;;5.86;100.00
4814;BME280;15375;48.540;9.268;2022-11-15T01:07:25;97108.06;;;5.72;100.00
4814;BME280;15375;48.540;9.268;2022-11-15T01:09:51;97043.25;;;5.33;100.00
4814;BME280;15375;48.540;9.268;2022-11-15T01:12:16;97072.16;;;5.54;100.00
4814;BME280;15375;48.540;9.268;2022-11-15T01:14:42;97080.28;;;5.54;100.00
4814;BME280;15375;48.540;9.268;2022-11-15T01:17:07;97058.28;;;5.41;100.00
4814;BME280;15375;48.540;9.268;2022-11-15T01:19:32;97086.44;;;5.61;100.00
4814;BME280;15375;48.540;9.268;2022-11-15T01:21:58;97072.97;;;5.51;100.00
4814;BME280;15375;48.540;9.268;2022-11-15T01:24:23;97077.59;;;5.50;100.00
4814;BME280;15375;48.540;9.268;2022-11-15T01:26:48;97070.66;;;5.53;100.00
4814;BME280;15375;48.540;9.268;2022-11-15T01:29:14;97077.97;;;5.56;100.00
4814;BME280;15375;48.540;9.268;2022-11-15T01:31:39;97079.56;;;5.43;100.00
4814;BME280;15375;48.540;9.268;2022-11-15T01:34:04;97097.66;;;5.56;100.00
4814;BME280;15375;48.540;9.268;2022-11-15T01:36:30;97088.44;;;5.50;100.00
4814;BME280;15375;48.540;9.268;2022-11-15T01:38:57;97071.44;;;5.39;100.00
4814;BME280;15375;48.540;9.268;2022-11-15T01:41:25;97086.84;;;5.56;100.00
4814;BME280;15375;48.540;9.268;2022-11-15T01:43:53;97067.22;;;5.38;100.00
4814;BME280;15375;48.540;9.268;2022-11-15T01:46:29;97061.38;;;5.36;100.00
4814;BME280;15375;48.540;9.268;2022-11-15T01:48:58;97054.09;;;5.23;100.00
4814;BME280;15375;48.540;9.268;2022-11-15T01:51:26;97062.97;;;5.20;100.00
4814;BME280;15375;48.540;9.268;2022-11-15T01:53:56;97067.22;;;5.21;100.00
4814;BME280;15375;48.540;9.268;2022-11-15T01:56:26;97063.75;;;5.20;100.00
4814;BME280;15375;48.540;9.268;2022-11-15T01:58:55;97068.38;;;5.20;100.00
4814;BME280;15375;48.540;9.268;2022-11-15T02:01:24;97061.44;;;5.22;100.00
4814;BME280;15375;48.540;9.268;2022-11-15T02:04:06;97059.13;;;5.13;100.00
4814;BME280;15375;48.540;9.268;2022-11-15T02:06:34;97052.97;;;5.06;100.00
4814;BME280;15375;48.540;9.268;2022-11-15T02:09:00;97063.75;;;5.13;100.00
4814;BME280;15375;48.540;9.268;2022-11-15T02:11:25;97022.84;;;4.90;100.00
4814;BME280;15375;48.540;9.268;2022-11-15T02:13:51;97034.03;;;4.99;100.00
4814;BME280;15375;48.540;9.268;2022-11-15T02:16:47;97035.19;;;5.01;100.00
4814;BME280;15375;48.540;9.268;2022-11-15T02:19:52;97046.00;;;5.05;100.00
4814;BME280;15375;48.540;9.268;2022-11-15T02:25:53;97052.94;;;4.99;100.00
4814;BME280;15375;48.540;9.268;2022-11-15T02:28:37;97054.50;;;5.00;100.00
4814;BME280;15375;48.540;9.268;2022-11-15T02:31:21;97030.97;;;4.79;100.00
4814;BME280;15375;48.540;9.268;2022-11-15T02:34:00;97024.03;;;4.75;100.00
4814;BME280;15375;48.540;9.268;2022-11-15T02:36:43;97049.50;;;4.88;100.00
4814;BME280;15375;48.540;9.268;2022-11-15T02:41:54;97047.94;;;4.97;100.00
4814;BME280;15375;48.540;9.268;2022-11-15T02:44:43;97040.22;;;5.03;100.00
4814;BME280;15375;48.540;9.268;2022-11-15T02:47:13;97021.28;;;4.89;100.00
4814;BME280;15375;48.540;9.268;2022-11-15T02:49:52;97020.13;;;4.97;100.00
4814;BME280;15375;48.540;9.268;2022-11-15T02:52:21;97041.75;;;5.11;100.00
4814;BME280;15375;48.540;9.268;2022-11-15T02:55:00;97037.50;;;5.03;100.00
4814;BME280;15375;48.540;9.268;2022-11-15T03:00:12;97017.41;;;5.04;100.00
4814;BME280;15375;48.540;9.268;2022-11-15T03:11:07;97012.38;;;5.27;100.00
4814;BME280;15375;48.540;9.268;2022-11-15T03:13:39;96995.75;;;5.25;100.00
4814;BME280;15375;48.540;9.268;2022-11-15T03:16:15;97001.53;;;5.34;100.00
4814;BME280;15375;48.540;9.268;2022-11-15T03:18:47;96984.94;;;5.25;100.00
4814;BME280;15375;48.540;9.268;2022-11-15T03:21:15;96984.19;;;5.28;100.00
4814;BME280;15375;48.540;9.268;2022-11-15T03:23:44;96971.44;;;5.25;100.00
4814;BME280;15375;48.540;9.268;2022-11-15T03:26:13;96969.50;;;5.26;100.00
4814;BME280;15375;48.540;9.268;2022-11-15T03:31:14;96952.56;;;5.11;100.00
4814;BME280;15375;48.540;9.268;2022-11-15T03:34:03;96977.25;;;5.13;100.00
4814;BME280;15375;48.540;9.268;2022-11-15T03:36:32;96965.66;;;5.09;100.00
4814;BME280;15375;48.540;9.268;2022-11-15T03:39:02;96963.78;;;4.95;100.00
4814;BME280;15375;48.540;9.268;2022-11-15T03:41:57;96979.59;;;4.97;100.00
4814;BME280;15375;48.540;9.268;2022-11-15T03:44:40;96980.38;;;4.97;100.00
4814;BME280;15375;48.540;9.268;2022-11-15T03:49:44;96984.22;;;5.00;100.00
4814;BME280;15375;48.540;9.268;2022-11-15T03:52:10;96951.47;;;4.77;100.00
4814;BME280;15375;48.540;9.268;2022-11-15T03:54:37;96945.66;;;4.71;100.00
4814;BME280;15375;48.540;9.268;2022-11-15T03:57:12;96946.06;;;4.73;100.00
4814;BME280;15375;48.540;9.268;2022-11-15T03:59:37;96931.41;;;4.57;100.00
4814;BME280;15375;48.540;9.268;2022-11-15T04:02:05;96941.81;;;4.62;100.00
4814;BME280;15375;48.540;9.268;2022-11-15T04:04:30;96949.19;;;4.50;100.00
4814;BME280;15375;48.540;9.268;2022-11-15T04:06:55;96944.16;;;4.35;100.00
4814;BME280;15375;48.540;9.268;2022-11-15T04:09:21;96950.72;;;4.37;100.00
4814;BME280;15375;48.540;9.268;2022-11-15T04:11:46;96927.19;;;4.24;100.00
4814;BME280;15375;48.540;9.268;2022-11-15T04:14:11;96944.16;;;4.38;100.00
4814;BME280;15375;48.540;9.268;2022-11-15T04:16:36;96951.09;;;4.32;100.00
4814;BME280;15375;48.540;9.268;2022-11-15T04:19:02;96945.72;;;4.25;100.00
4814;BME280;15375;48.540;9.268;2022-11-15T04:21:47;96937.59;;;4.11;100.00
4814;BME280;15375;48.540;9.268;2022-11-15T04:24:31;96941.06;;;4.19;100.00
4814;BME280;15375;48.540;9.268;2022-11-15T04:26:57;96953.44;;;4.30;100.00
4814;BME280;15375;48.540;9.268;2022-11-15T04:29:22;96956.50;;;4.32;100.00
4814;BME280;15375;48.540;9.268;2022-11-15T04:32:03;96957.66;;;4.38;100.00
4814;BME280;15375;48.540;9.268;2022-11-15T04:34:29;96935.28;;;4.20;100.00
4814;BME280;15375;48.540;9.268;2022-11-15T04:36:54;96938.38;;;4.22;100.00
4814;BME280;15375;48.540;9.268;2022-11-15T04:39:39;96946.47;;;4.33;100.00
4814;BME280;15375;48.540;9.268;2022-11-15T04:42:05;96961.91;;;4.46;100.00
4814;BME280;15375;48.540;9.268;2022-11-15T04:44:30;96927.97;;;4.31;100.00
4814;BME280;15375;48.540;9.268;2022-11-15T04:46:56;96948.78;;;4.41;100.00
4814;BME280;15375;48.540;9.268;2022-11-15T04:49:21;96925.63;;;4.26;100.00
4814;BME280;15375;48.540;9.268;2022-11-15T04:51:46;96953.41;;;4.41;100.00
4814;BME280;15375;48.540;9.268;2022-11-15T04:54:12;96952.25;;;4.42;100.00
4814;BME280;15375;48.540;9.268;2022-11-15T04:56:37;96928.72;;;4.21;100.00
4814;BME280;15375;48.540;9.268;2022-11-15T04:59:02;96917.16;;;4.17;100.00
4814;BME280;15375;48.540;9.268;2022-11-15T05:01:28;96928.72;;;4.32;100.00
4814;BME280;15375;48.540;9.268;2022-11-15T05:03:53;96919.84;;;4.14;100.00
4814;BME280;15375;48.540;9.268;2022-11-15T05:06:37;96930.28;;;4.22;100.00
4814;BME280;15375;48.540;9.268;2022-11-15T05:09:02;96934.53;;;4.37;100.00
4814;BME280;15375;48.540;9.268;2022-11-15T05:11:28;96930.28;;;4.29;100.00
4814;BME280;15375;48.540;9.268;2022-11-15T05:13:54;96941.09;;;4.33;100.00
4814;BME280;15375;48.540;9.268;2022-11-15T05:16:19;96905.97;;;4.12;100.00
4814;BME280;15375;48.540;9.268;2022-11-15T05:18:44;96921.38;;;4.36;100.00
4814;BME280;15375;48.540;9.268;2022-11-15T05:21:12;96917.94;;;4.39;100.00
4814;BME280;15375;48.540;9.268;2022-11-15T05:23:38;96839.69;;;3.90;100.00
4814;BME280;15375;48.540;9.268;2022-11-15T05:26:05;96832.75;;;3.92;100.00
4814;BME280;15375;48.540;9.268;2022-11-15T05:28:32;96924.50;;;4.56;100.00
4814;BME280;15375;48.540;9.268;2022-11-15T05:31:06;96939.53;;;4.57;100.00
4814;BME280;15375;48.540;9.268;2022-11-15T05:33:32;96919.47;;;4.43;100.00
4814;BME280;15375;48.540;9.268;2022-11-15T05:36:02;96906.38;;;4.28;100.00
4814;BME280;15375;48.540;9.268;2022-11-15T05:38:29;96898.25;;;4.31;100.00
4814;BME280;15375;48.540;9.268;2022-11-15T05:40:54;96894.78;;;4.24;100.00
4814;BME280;15375;48.540;9.268;2022-11-15T05:43:20;96929.50;;;4.39;100.00
4814;BME280;15375;48.540;9.268;2022-11-15T05:45:46;96910.22;;;4.23;100.00
4814;BME280;15375;48.540;9.268;2022-11-15T05:48:12;96893.25;;;4.02;100.00
4814;BME280;15375;48.540;9.268;2022-11-15T05:50:38;96890.94;;;3.93;100.00
4814;BME280;15375;48.540;9.268;2022-11-15T05:53:06;96901.72;;;3.93;100.00
4814;BME280;15375;48.540;9.268;2022-11-15T05:55:32;96896.69;;;3.88;100.00
4814;BME280;15375;48.540;9.268;2022-11-15T05:57:59;96908.66;;;3.94;100.00
4814;BME280;15375;48.540;9.268;2022-11-15T06:00:25;96895.94;;;3.91;100.00
4814;BME280;15375;48.540;9.268;2022-11-15T06:02:51;96895.19;;;3.98;100.00
4814;BME280;15375;48.540;9.268;2022-11-15T06:05:16;96890.94;;;3.82;100.00
4814;BME280;15375;48.540;9.268;2022-11-15T06:07:41;96930.66;;;4.14;100.00
4814;BME280;15375;48.540;9.268;2022-11-15T06:10:07;96931.81;;;4.09;100.00
4814;BME280;15375;48.540;9.268;2022-11-15T06:12:33;96905.97;;;3.94;100.00
4814;BME280;15375;48.540;9.268;2022-11-15T06:14:58;96896.31;;;3.93;100.00
4814;BME280;15375;48.540;9.268;2022-11-15T06:17:23;96920.63;;;4.07;100.00
4814;BME280;15375;48.540;9.268;2022-11-15T06:19:49;96857.00;;;3.67;100.00
4814;BME280;15375;48.540;9.268;2022-11-15T06:22:16;96894.00;;;3.92;100.00
4814;BME280;15375;48.540;9.268;2022-11-15T06:24:41;96883.22;;;3.84;100.00
4814;BME280;15375;48.540;9.268;2022-11-15T06:27:06;96897.50;;;3.92;100.00
4814;BME280;15375;48.540;9.268;2022-11-15T06:29:32;96901.72;;;3.93;100.00
4814;BME280;15375;48.540;9.268;2022-11-15T06:31:57;96933.38;;;4.17;100.00
4814;BME280;15375;48.540;9.268;2022-11-15T06:34:22;96909.84;;;4.14;100.00
4814;BME280;15375;48.540;9.268;2022-11-15T06:36:48;96893.25;;;4.12;100.00
4814;BME280;15375;48.540;9.268;2022-11-15T06:39:13;96856.25;;;3.81;100.00
4814;BME280;15375;48.540;9.268;2022-11-15T06:41:38;96889.78;;;4.01;100.00
4814;BME280;15375;48.540;9.268;2022-11-15T06:44:04;96850.06;;;3.80;100.00
4814;BME280;15375;48.540;9.268;2022-11-15T06:46:29;96924.09;;;4.32;100.00
4814;BME280;15375;48.540;9.268;2022-11-15T06:48:54;96934.53;;;4.48;100.00
4814;BME280;15375;48.540;9.268;2022-11-15T06:51:20;96931.81;;;4.51;100.00
4814;BME280;15375;48.540;9.268;2022-11-15T06:53:45;96931.03;;;4.51;100.00
4814;BME280;15375;48.540;9.268;2022-11-15T06:56:11;96929.09;;;4.66;100.00
4814;BME280;15375;48.540;9.268;2022-11-15T06:58:37;96934.13;;;4.71;100.00
4814;BME280;15375;48.540;9.268;2022-11-15T07:01:05;96929.47;;;4.78;100.00
4814;BME280;15375;48.540;9.268;2022-11-15T07:03:31;96897.84;;;4.68;100.00
4814;BME280;15375;48.540;9.268;2022-11-15T07:05:57;96919.81;;;4.88;100.00
4814;BME280;15375;48.540;9.268;2022-11-15T07:08:23;96899.34;;;4.83;100.00
4814;BME280;15375;48.540;9.268;2022-11-15T07:10:49;96923.25;;;4.92;100.00
4814;BME280;15375;48.540;9.268;2022-11-15T07:13:14;96920.56;;;4.88;100.00
4814;BME280;15375;48.540;9.268;2022-11-15T07:15:40;96915.53;;;4.94;100.00
4814;BME280;15375;48.540;9.268;2022-11-15T07:18:05;96907.81;;;4.92;100.00
4814;BME280;15375;48.540;9.268;2022-11-15T07:20:31;96887.75;;;4.93;100.00
4814;BME280;15375;48.540;9.268;2022-11-15T07:23:03;96929.31;;;5.28;100.00
4814;BME280;15375;48.540;9.268;2022-11-15T07:25:29;96936.19;;;5.53;100.00
4814;BME280;15375;48.540;9.268;2022-11-15T07:27:56;96937.66;;;5.68;100.00
4814;BME280;15375;48.540;9.268;2022-11-15T07:30:22;96936.81;;;5.86;100.00
4814;BME280;15375;48.540;9.268;2022-11-15T07:32:52;96900.44;;;5.90;100.00
4814;BME280;15375;48.540;9.268;2022-11-15T07:35:18;96918.00;;;6.19;100.00
4814;BME280;15375;48.540;9.268;2022-11-15T07:37:43;96927.25;;;6.25;100.00
4814;BME280;15375;48.540;9.268;2022-11-15T07:40:09;96899.59;;;5.97;100.00
4814;BME280;15375;48.540;9.268;2022-11-15T07:42:34;96922.03;;;5.97;100.00
4814;BME280;15375;48.540;9.268;2022-11-15T07:45:18;96886.63;;;5.70;100.00
4814;BME280;15375;48.540;9.268;2022-11-15T07:47:48;96905.84;;;5.87;100.00
4814;BME280;15375;48.540;9.268;2022-11-15T07:50:14;96913.47;;;6.02;100.00
4814;BME280;15375;48.540;9.268;2022-11-15T07:52:40;96901.97;;;6.42;100.00
4814;BME280;15375;48.540;9.268;2022-11-15T07:55:06;96887.75;;;7.10;100.00
4814;BME280;15375;48.540;9.268;2022-11-15T07:57:31;96881.34;;;7.84;100.00
4814;BME280;15375;48.540;9.268;2022-11-15T07:59:56;96852.50;;;8.43;100.00
4814;BME280;15375;48.540;9.268;2022-11-15T08:02:22;96894.63;;;9.37;100.00
4814;BME280;15375;48.540;9.268;2022-11-15T08:04:47;96857.97;;;9.61;100.00
4814;BME280;15375;48.540;9.268;2022-11-15T08:07:13;96853.53;;;9.51;100.00
4814;BME280;15375;48.540;9.268;2022-11-15T08:09:38;96874.75;;;9.40;100.00
4814;BME280;15375;48.540;9.268;2022-11-15T08:12:04;96901.06;;;9.46;100.00
4814;BME280;15375;48.540;9.268;2022-11-15T08:14:29;96867.91;;;9.12;100.00
4814;BME280;15375;48.540;9.268;2022-11-15T08:16:55;96877.63;;;9.13;100.00
4814;BME280;15375;48.540;9.268;2022-11-15T08:19:20;96878.94;;;9.05;100.00
4814;BME280;15375;48.540;9.268;2022-11-15T08:21:45;96870.72;;;9.09;100.00
4814;BME280;15375;48.540;9.268;2022-11-15T08:24:11;96884.72;;;9.07;100.00
4814;BME280;15375;48.540;9.268;2022-11-15T08:26:36;96884.28;;;8.89;100.00
4814;BME280;15375;48.540;9.268;2022-11-15T08:29:02;96873.09;;;8.64;100.00
4814;BME280;15375;48.540;9.268;2022-11-15T08:31:27;96845.69;;;8.31;100.00
4814;BME280;15375;48.540;9.268;2022-11-15T08:33:53;96833.97;;;8.38;100.00
4814;BME280;15375;48.540;9.268;2022-11-15T08:36:19;96861.66;;;8.53;100.00
4814;BME280;15375;48.540;9.268;2022-11-15T08:38:44;96859.75;;;8.26;100.00
4814;BME280;15375;48.540;9.268;2022-11-15T08:41:13;96861.44;;;8.17;100.00
4814;BME280;15375;48.540;9.268;2022-11-15T08:43:39;96862.81;;;8.28;100.00
4814;BME280;15375;48.540;9.268;2022-11-15T08:46:05;96857.44;;;8.25;100.00
4814;BME280;15375;48.540;9.268;2022-11-15T08:48:30;96868.03;;;8.43;100.00
4814;BME280;15375;48.540;9.268;2022-11-15T08:50:56;96842.75;;;8.46;100.00
4814;BME280;15375;48.540;9.268;2022-11-15T08:53:22;96852.84;;;8.68;100.00
4814;BME280;15375;48.540;9.268;2022-11-15T08:55:47;96862.03;;;8.74;100.00
4814;BME280;15375;48.540;9.268;2022-11-15T08:58:12;96847.44;;;8.65;100.00
4814;BME280;15375;48.540;9.268;2022-11-15T09:00:38;96851.25;;;8.71;100.00
4814;BME280;15375;48.540;9.268;2022-11-15T09:03:04;96864.13;;;8.86;100.00
4814;BME280;15375;48.540;9.268;2022-11-15T09:05:31;96838.91;;;8.86;100.00
4814;BME280;15375;48.540;9.268;2022-11-15T09:07:56;96844.75;;;9.04;100.00
4814;BME280;15375;48.540;9.268;2022-11-15T09:10:22;96861.91;;;9.40;100.00
4814;BME280;15375;48.540;9.268;2022-11-15T09:12:47;96821.72;;;9.28;100.00
4814;BME280;15375;48.540;9.268;2022-11-15T09:15:14;96804.44;;;9.19;100.00
4814;BME280;15375;48.540;9.268;2022-11-15T09:17:40;96839.47;;;9.52;100.00
4814;BME280;15375;48.540;9.268;2022-11-15T09:20:06;96770.81;;;9.09;100.00
4814;BME280;15375;48.540;9.268;2022-11-15T09:22:31;96852.69;;;9.70;100.00
4814;BME280;15375;48.540;9.268;2022-11-15T09:24:57;96832.75;;;9.57;100.00
4814;BME280;15375;48.540;9.268;2022-11-15T09:27:22;96826.19;;;9.54;100.00
4814;BME280;15375;48.540;9.268;2022-11-15T09:29:48;96788.25;;;9.31;100.00
4814;BME280;15375;48.540;9.268;2022-11-15T09:32:13;96820.13;;;9.67;100.00
4814;BME280;15375;48.540;9.268;2022-11-15T09:34:38;96831.34;;;9.85;100.00
4814;BME280;15375;48.540;9.268;2022-11-15T09:37:04;96793.41;;;9.61;100.00
4814;BME280;15375;48.540;9.268;2022-11-15T09:39:29;96834.25;;;10.10;100.00
4814;BME280;15375;48.540;9.268;2022-11-15T09:42:07;96819.97;;;10.38;100.00
4814;BME280;15375;48.540;9.268;2022-11-15T09:47:38;96843.97;;;11.17;100.00
4814;BME280;15375;48.540;9.268;2022-11-15T09:50:10;96813.94;;;11.17;100.00
4814;BME280;15375;48.540;9.268;2022-11-15T09:52:37;96810.56;;;11.25;100.00
4814;BME280;15375;48.540;9.268;2022-11-15T09:55:09;96813.31;;;11.38;100.00
4814;BME280;15375;48.540;9.268;2022-11-15T09:57:45;96803.50;;;11.40;100.00
4814;BME280;15375;48.540;9.268;2022-11-15T10:00:31;96803.63;;;11.49;100.00
4814;BME280;15375;48.540;9.268;2022-11-15T10:03:52;96790.75;;;11.63;100.00
4814;BME280;15375;48.540;9.268;2022-11-15T10:06:01;96813.59;;;11.94;100.00
4814;BME280;15375;48.540;9.268;2022-11-15T10:11:30;96788.38;;;12.93;98.62
4814;BME280;15375;48.540;9.268;2022-11-15T10:14:00;96806.69;;;13.79;90.40
4814;BME280;15375;48.540;9.268;2022-11-15T10:24:28;96808.00;;;14.05;82.33
4814;BME280;15375;48.540;9.268;2022-11-15T10:26:55;96790.94;;;14.01;80.11
4814;BME280;15375;48.540;9.268;2022-11-15T10:29:22;96801.44;;;14.02;82.85
4814;BME280;15375;48.540;9.268;2022-11-15T10:31:48;96757.59;;;13.63;84.94
4814;BME280;15375;48.540;9.268;2022-11-15T10:34:17;96796.41;;;13.92;84.92
4814;BME280;15375;48.540;9.268;2022-11-15T10:36:54;96788.78;;;13.96;85.85
4814;BME280;15375;48.540;9.268;2022-11-15T10:39:20;96758.09;;;13.70;83.93
4814;BME280;15375;48.540;9.268;2022-11-15T10:41:45;96777.63;;;13.90;86.26
4814;BME280;15375;48.540;9.268;2022-11-15T10:44:23;96789.09;;;13.98;85.24
4814;BME280;15375;48.540;9.268;2022-11-15T10:49:25;96790.56;;;13.81;88.84
4814;BME280;15375;48.540;9.268;2022-11-15T10:51:57;96787.91;;;13.59;90.89
4814;BME280;15375;48.540;9.268;2022-11-15T10:56:59;96752.53;;;13.00;90.92
4814;BME280;15375;48.540;9.268;2022-11-15T10:59:31;96783.38;;;13.13;91.61
4814;BME280;15375;48.540;9.268;2022-11-15T11:01:59;96772.41;;;12.91;91.78
4814;BME280;15375;48.540;9.268;2022-11-15T11:04:24;96717.22;;;12.49;92.92
4814;BME280;15375;48.540;9.268;2022-11-15T11:06:58;96768.72;;;12.85;95.05
4814;BME280;15375;48.540;9.268;2022-11-15T11:09:28;96769.03;;;12.87;95.94
4814;BME280;15375;48.540;9.268;2022-11-15T11:11:55;96768.41;;;12.83;96.55
4814;BME280;15375;48.540;9.268;2022-11-15T11:14:24;96744.97;;;12.60;97.28
4814;BME280;15375;48.540;9.268;2022-11-15T11:22:39;96747.50;;;12.76;95.38
4814;BME280;15375;48.540;9.268;2022-11-15T11:27:47;96752.19;;;12.89;94.31
4814;BME280;15375;48.540;9.268;2022-11-15T11:35:38;96743.69;;;12.96;93.55
4814;BME280;15375;48.540;9.268;2022-11-15T11:41:15;96731.94;;;12.86;90.59
4814;BME280;15375;48.540;9.268;2022-11-15T11:46:41;96733.13;;;13.07;88.51
4814;BME280;15375;48.540;9.268;2022-11-15T11:49:22;96733.63;;;13.14;87.77
4814;BME280;15375;48.540;9.268;2022-11-15T11:52:05;96704.91;;;12.97;85.73
4814;BME280;15375;48.540;9.268;2022-11-15T11:54:43;96722.88;;;13.20;86.07
4814;BME280;15375;48.540;9.268;2022-11-15T12:00:03;96709.34;;;13.25;86.70
4814;BME280;15375;48.540;9.268;2022-11-15T12:02:39;96712.88;;;13.26;88.77
4814;BME280;15375;48.540;9.268;2022-11-15T12:05:15;96702.59;;;13.08;86.77
4814;BME280;15375;48.540;9.268;2022-11-15T12:07:46;96695.56;;;13.07;87.80
4814;BME280;15375;48.540;9.268;2022-11-15T12:10:28;96710.72;;;13.21;90.26
4814;BME280;15375;48.540;9.268;2022-11-15T12:13:01;96709.81;;;13.24;91.15
4814;BME280;15375;48.540;9.268;2022-11-15T12:15:35;96694.91;;;13.25;90.28
4814;BME280;15375;48.540;9.268;2022-11-15T12:18:04;96677.66;;;13.06;87.43
4814;BME280;15375;48.540;9.268;2022-11-15T12:20:35;96675.97;;;13.09;86.50
4814;BME280;15375;48.540;9.268;2022-11-15T12:23:07;96655.84;;;13.03;86.51
4814;BME280;15375;48.540;9.268;2022-11-15T12:28:37;96679.84;;;13.29;87.50
4814;BME280;15375;48.540;9.268;2022-11-15T12:31:15;96690.38;;;13.31;87.82
4814;BME280;15375;48.540;9.268;2022-11-15T12:33:54;96686.88;;;13.30;87.21
4814;BME280;15375;48.540;9.268;2022-11-15T12:38:53;96689.13;;;13.32;88.62
4814;BME280;15375;48.540;9.268;2022-11-15T12:41:20;96671.31;;;13.27;88.13
4814;BME280;15375;48.540;9.268;2022-11-15T12:43:48;96671.91;;;13.22;88.26
4814;BME280;15375;48.540;9.268;2022-11-15T12:49:02;96659.47;;;13.21;89.15
4814;BME280;15375;48.540;9.268;2022-11-15T13:08:00;96655.78;;;13.82;88.26
4814;BME280;15375;48.540;9.268;2022-11-15T13:12:56;96645.28;;;13.72;85.51
4814;BME280;15375;48.540;9.268;2022-11-15T13:18:39;96630.34;;;13.64;83.91
4814;BME280;15375;48.540;9.268;2022-11-15T13:21:19;96636.44;;;13.68;84.81
4814;BME280;15375;48.540;9.268;2022-11-15T13:24:04;96615.28;;;13.59;86.75
4814;BME280;15375;48.540;9.268;2022-11-15T13:26:38;96632.66;;;13.74;86.71
4814;BME280;15375;48.540;9.268;2022-11-15T13:29:14;96613.63;;;13.71;85.12
4814;BME280;15375;48.540;9.268;2022-11-15T13:31:42;96610.25;;;13.76;85.50
4814;BME280;15375;48.540;9.268;2022-11-15T13:34:28;96615.91;;;13.81;85.29
4814;BME280;15375;48.540;9.268;2022-11-15T13:36:55;96579.78;;;13.65;84.86
4814;BME280;15375;48.540;9.268;2022-11-15T13:39:31;96600.53;;;13.84;85.37
4814;BME280;15375;48.540;9.268;2022-11-15T13:41:58;96588.03;;;13.74;85.60
4814;BME280;15375;48.540;9.268;2022-11-15T13:44:27;96591.09;;;13.76;86.53
4814;BME280;15375;48.540;9.268;2022-11-15T13:47:03;96597.03;;;13.74;85.70
4814;BME280;15375;48.540;9.268;2022-11-15T13:49:30;96593.38;;;13.68;85.99
4814;BME280;15375;48.540;9.268;2022-11-15T13:51:56;96577.22;;;13.61;85.59
4814;BME280;15375;48.540;9.268;2022-11-15T13:56:57;96588.78;;;13.56;88.35
4814;BME280;15375;48.540;9.268;2022-11-15T13:59:34;96553.88;;;13.29;88.87
4814;BME280;15375;48.540;9.268;2022-11-15T14:02:12;96581.59;;;13.50;89.68
4814;BME280;15375;48.540;9.268;2022-11-15T14:04:58;96572.78;;;13.46;90.96
4814;BME280;15375;48.540;9.268;2022-11-15T14:07:26;96535.94;;;13.28;92.40
4814;BME280;15375;48.540;9.268;2022-11-15T14:09:53;96555.13;;;13.37;92.34
4814;BME280;15375;48.540;9.268;2022-11-15T14:12:31;96562.88;;;13.39;95.18
4814;BME280;15375;48.540;9.268;2022-11-15T14:14:59;96541.06;;;13.17;96.20
4814;BME280;15375;48.540;9.268;2022-11-15T14:19:53;96523.66;;;12.93;96.98
4814;BME280;15375;48.540;9.268;2022-11-15T14:22:20;96545.19;;;13.13;97.34
4814;BME280;15375;48.540;9.268;2022-11-15T14:25:04;96505.09;;;12.88;97.29
4814;BME280;15375;48.540;9.268;2022-11-15T14:27:31;96518.97;;;13.03;97.38
4814;BME280;15375;48.540;9.268;2022-11-15T14:29:56;96497.91;;;12.81;98.93
4814;BME280;15375;48.540;9.268;2022-11-15T14:32:25;96532.19;;;13.04;100.00
4814;BME280;15375;48.540;9.268;2022-11-15T14:35:01;96522.13;;;12.92;100.00
4814;BME280;15375;48.540;9.268;2022-11-15T14:37:32;96509.50;;;12.86;100.00
4814;BME280;15375;48.540;9.268;2022-11-15T14:40:00;96506.25;;;12.69;100.00
4814;BME280;15375;48.540;9.268;2022-11-15T14:42:26;96512.31;;;12.64;100.00
4814;BME280;15375;48.540;9.268;2022-11-15T14:44:52;96520.25;;;12.71;100.00
4814;BME280;15375;48.540;9.268;2022-11-15T14:47:18;96504.69;;;12.59;100.00
4814;BME280;15375;48.540;9.268;2022-11-15T14:49:44;96511.69;;;12.60;100.00
4814;BME280;15375;48.540;9.268;2022-11-15T14:52:30;96499.19;;;12.50;100.00
4814;BME280;15375;48.540;9.268;2022-11-15T14:55:00;96517.47;;;12.62;100.00
4814;BME280;15375;48.540;9.268;2022-11-15T14:57:27;96498.69;;;12.42;100.00
4814;BME280;15375;48.540;9.268;2022-11-15T14:59:53;96521.56;;;12.57;100.00